• Join FlightAware (Why Join?)
  • Login
  • US Flag 
01:14AM EST


 

Airport Tracker/Info


-or-


 

Live Flight TrackerFlight Track Log ✈ N53NW ✈ 23-Aug-2013 ✈ KGMU - KBWI

Flight Track Log - Related Links

Times and Time Zones

All times are in EDT time to prevent confusion due to time zone crossing. See the N53NW flight status page for this flight to view local times or setup timezone preferences in your user account.

Time Position Orientation Groundspeed Altitude Reporting Facility
EDT Latitude Longitude Course Direction KTS MPH feet Rate Location/Type
09:56AM 34.9008 -82.3267 51° Northeast 215 247 2,700  Level Atlanta Center
09:57AM 34.9503 -82.2650 46° Northeast 259 298 5,100 2,400 Climbing Atlanta Center
09:58AM 34.9933 -82.2133 45° Northeast 278 320 7,600 2,580 Climbing Atlanta Center
09:59AM 35.0486 -82.1486 44° Northeast 273 314 10,300 2,640 Climbing Atlanta Center
10:00AM 35.1039 -82.0789 46° Northeast 273 314 12,900 2,580 Climbing Atlanta Center
10:01AM 35.1631 -82.0011 47° Northeast 278 320 15,500 2,100 Climbing Atlanta Center
10:02AM 35.2038 -81.6360 51° Northeast  Level FlightAware Approximate
10:02AM 35.2286 -81.9361 39° Northeast 284 327 17,100  Level Atlanta Center
10:03AM 35.3203 -81.9261 North 292 336 17,500 1,080 Climbing Atlanta Center
10:04AM 35.3686 -81.8281 59° Northeast 305 351 19,300 1,800 Climbing Atlanta Center
10:05AM 35.4086 -81.7250 65° Northeast 313 360 21,100 1,800 Climbing Atlanta Center
10:06AM 35.4483 -81.6194 65° Northeast 318 366 22,900 1,500 Climbing Atlanta Center
10:07AM 35.4878 -81.5136 65° Northeast 330 380 24,200 1,320 Climbing Atlanta Center
10:08AM 35.5272 -81.4028 66° East 344 396 25,600 1,320 Climbing Atlanta Center
10:09AM 35.5644 -81.2969 67° East 350 403 26,900 1,440 Climbing Atlanta Center
10:10AM 35.6181 -81.1775 61° Northeast 370 426 28,500 1,440 Climbing Atlanta Center
10:11AM 35.6758 -81.0606 59° Northeast 370 426 29,800 1,200 Climbing Atlanta Center
10:12AM 35.7294 -80.9536 58° Northeast 376 433 31,000 1,200 Climbing Atlanta Center
10:13AM 35.7808 -80.8417 60° Northeast 371 427 32,200 1,260 Climbing Atlanta Center
10:14AM 35.8342 -80.7269 60° Northeast 376 433 33,500 1,200 Climbing Atlanta Center
10:15AM 35.8875 -80.6119 60° Northeast 381 438 34,700 1,320 Climbing Atlanta Center
10:16AM 35.9383 -80.4969 61° Northeast 381 438 36,200 1,140 Climbing Atlanta Center
10:17AM 35.9892 -80.3844 61° Northeast 376 433 37,000 240 Climbing Atlanta Center
10:19AM 36.0914 -80.1700 59° Northeast 424 488 37,000  Level Washington Center
10:20AM 36.1481 -80.0497 60° Northeast 416 479 37,000  Level Washington Center
10:21AM 36.2069 -79.9244 60° Northeast 416 479 37,000 -360 Level Washington Center
10:22AM 36.2636 -79.7961 61° Northeast 416 479 36,400 -840 Descending Washington Center
10:23AM 36.3306 -79.6733 56° Northeast 427 491 35,400 -960 Descending Washington Center
10:24AM 36.4089 -79.5769 45° Northeast 427 491 34,500 -960 Descending Washington Center
10:25AM 36.4958 -79.4753 43° Northeast 427 491 33,500 -960 Descending Washington Center
10:26AM 36.5828 -79.3683 45° Northeast 427 491 32,600 -1,080 Descending Washington Center
10:27AM 36.6719 -79.2458 48° Northeast 427 491 31,400 -1,140 Descending Washington Center
10:28AM 36.7325 -79.1114 61° Northeast 427 491 30,400 -1,020 Descending Washington Center
10:29AM 36.7925 -78.9792 60° Northeast 427 491 29,500 -720 Descending Washington Center
10:30AM 36.8439 -78.8594 62° Northeast 427 491 29,000 -300 Descending Washington Center
10:31AM 36.9017 -78.7294 61° Northeast 427 491 29,000  Level Washington Center
10:32AM 36.9592 -78.6019 61° Northeast 427 491 29,000  Level Washington Center
10:33AM 37.0231 -78.4561 61° Northeast 427 491 29,000  Level Washington Center
10:34AM 37.0783 -78.3306 61° Northeast 427 491 29,000 -60 Level Washington Center
10:35AM 37.1444 -78.1714 62° Northeast 427 491 28,900 -480 Descending Washington Center
10:36AM 37.1992 -78.0456 61° Northeast 421 484 28,000 -840 Descending Washington Center
10:37AM 37.2539 -77.9142 62° Northeast 421 484 27,300 -540 Descending Washington Center
10:38AM 37.3086 -77.7825 62° Northeast 421 484 27,000 -600 Descending Washington Center
10:39AM 37.3631 -77.6561 62° Northeast 416 479 26,100 -1,020 Descending Washington Center
10:40AM 37.4153 -77.5267 63° Northeast 411 473 25,000 -1,140 Descending Washington Center
10:41AM 37.4692 -77.4053 61° Northeast 397 457 23,900 -1,020 Descending Washington Center
10:42AM 37.5414 -77.3125 46° Northeast 373 429 23,000 -480 Descending Washington Center
10:43AM 37.6419 -77.2911 10° North 342 394 23,000  Level Washington Center
10:44AM 37.7422 -77.2700 North 342 394 23,000  Level Washington Center
10:45AM 37.8447 -77.2511 North 355 409 23,000 -300 Level Washington Center
10:46AM 37.9453 -77.2297 10° North 365 420 22,400 -1,140 Descending Washington Center
10:47AM 38.0456 -77.2108 North 365 420 20,800 -1,560 Descending Washington Center
10:48AM 38.1417 -77.1917 North 365 420 19,300 -1,620 Descending Washington Center
10:49AM 38.2400 -77.1672 11° North 359 413 17,700 -1,740 Descending Washington Center
10:50AM 38.3361 -77.1481 North 353 406 15,900 -1,740 Descending Washington Center
10:51AM 38.4183 -77.0942 27° Northeast 333 383 14,200 -1,560 Descending Washington Center
10:52AM 38.4817 -77.0186 43° Northeast 323 372 12,800 -1,380 Descending Washington Center
10:53AM 38.5450 -76.9428 43° Northeast 312 359 11,600 -1,140 Descending Washington Center
10:54AM 38.6042 -76.8722 43° Northeast 293 337 10,600 -960 Descending Washington Center
10:55AM 38.6633 -76.7989 44° Northeast 288 331 9,700 -960 Descending Washington Center
10:56AM 38.7142 -76.7250 49° Northeast 283 326 8,700 -1,140 Descending Washington Center
10:57AM 38.7503 -76.6406 61° Northeast 277 319 7,500 -1,200 Descending Washington Center
10:59AM 38.8167 -76.5333 52° Northeast 271 312 6,000 -1,200 Descending Potomac TRACON
11:00AM 38.8833 -76.5500 349° North 265 305 4,800 -1,020 Descending Potomac TRACON
11:01AM 38.9500 -76.5833 339° North 258 297 4,000 -420 Descending Potomac TRACON
11:02AM 39.0000 -76.6667 308° West 269 310 4,000 -420 Level Potomac TRACON
11:03AM 39.0333 -76.7333 303° West 273 314 3,200 -540 Descending Potomac TRACON
11:04AM 39.0833 -76.8167 308° West 267 307 3,000 -600 Descending Potomac TRACON
11:05AM 39.1500 -76.8333 349° North 249 287 2,100 -720 Descending Potomac TRACON
11:06AM 39.1833 -76.7667 57° Northeast 176 203 1,600 -660 Descending Potomac TRACON
11:07AM 39.1833 -76.7333 90° East 128 147 800 -840 Descending Potomac TRACON
11:09AM 39.1667 -76.6667 108° East  Level FlightAware Approximate
11:16AM 39.1754 -76.6683 108° East  Level Estimated
11:17AM 39.1754 -76.6683 108° East  Level Estimated
11:18AM 39.1754 -76.6683 108° East  Level Estimated